createdAt,value
2017-07-12T00:00:54.926Z,19.64
2017-07-12T00:03:22.324Z,19.64
2017-07-12T00:05:49.736Z,19.55
2017-07-12T00:08:17.141Z,19.50
2017-07-12T00:10:44.544Z,19.38
2017-07-12T00:13:11.943Z,19.31
2017-07-12T00:15:39.352Z,19.28
2017-07-12T00:18:06.751Z,19.29
2017-07-12T00:20:34.165Z,19.29
2017-07-12T00:23:01.562Z,19.26
2017-07-12T00:25:29.204Z,19.08
2017-07-12T00:27:56.607Z,19.05
2017-07-12T00:30:24.021Z,19.16
2017-07-12T00:32:51.422Z,19.11
2017-07-12T00:35:18.828Z,19.11
2017-07-12T00:37:46.225Z,19.22
2017-07-12T00:40:13.943Z,19.30
2017-07-12T00:42:41.344Z,19.39
2017-07-12T00:45:08.749Z,19.39
2017-07-12T00:47:36.161Z,19.49
2017-07-12T00:50:03.570Z,19.61
2017-07-12T00:52:30.970Z,19.73
2017-07-12T00:54:58.375Z,19.80
2017-07-12T00:57:25.782Z,19.75
2017-07-12T00:59:53.195Z,19.70
2017-07-12T01:02:20.592Z,19.75
2017-07-12T01:04:48.001Z,19.72
2017-07-12T01:07:15.395Z,19.58
2017-07-12T01:09:42.828Z,19.35
2017-07-12T01:12:10.230Z,19.16
2017-07-12T01:14:37.632Z,18.93
2017-07-12T01:17:05.041Z,18.95
2017-07-12T01:19:32.436Z,18.90
2017-07-12T01:21:59.843Z,18.78
2017-07-12T01:24:27.239Z,18.80
2017-07-12T01:26:54.638Z,18.93
2017-07-12T01:29:22.042Z,18.78
2017-07-12T01:31:49.446Z,18.38
2017-07-12T01:34:16.843Z,18.23
2017-07-12T01:36:44.259Z,18.27
2017-07-12T01:39:11.643Z,18.07
2017-07-12T01:41:39.043Z,18.06
2017-07-12T01:44:06.443Z,18.18
2017-07-12T01:46:33.851Z,18.33
2017-07-12T01:49:01.255Z,18.47
2017-07-12T01:51:28.959Z,18.63
2017-07-12T01:53:56.356Z,18.82
2017-07-12T01:56:23.759Z,18.99
2017-07-12T01:58:51.159Z,19.10
2017-07-12T02:01:18.565Z,19.20
2017-07-12T02:03:45.977Z,19.28
2017-07-12T02:06:13.378Z,19.33
2017-07-12T02:08:40.788Z,19.35
2017-07-12T02:11:08.408Z,19.49
2017-07-12T02:13:35.812Z,19.54
2017-07-12T02:16:03.523Z,19.54
2017-07-12T02:18:30.934Z,19.28
2017-07-12T02:20:58.330Z,19.13
2017-07-12T02:23:25.743Z,19.08
2017-07-12T02:25:53.151Z,19.08
2017-07-12T02:28:20.555Z,18.97
2017-07-12T02:30:47.960Z,18.99
2017-07-12T02:33:15.368Z,19.00
2017-07-12T02:35:42.769Z,18.85
2017-07-12T02:38:10.176Z,18.96
2017-07-12T02:40:37.579Z,18.96
2017-07-12T02:43:04.988Z,19.01
2017-07-12T02:45:32.392Z,19.04
2017-07-12T02:47:59.797Z,19.10
2017-07-12T02:50:27.196Z,19.23
2017-07-12T02:52:54.604Z,19.29
2017-07-12T02:55:22.319Z,19.39
2017-07-12T02:57:49.735Z,19.42
2017-07-12T03:00:17.128Z,19.43
2017-07-12T03:02:44.534Z,19.42
2017-07-12T03:05:11.935Z,19.31
2017-07-12T03:07:39.348Z,19.10
2017-07-12T03:10:07.059Z,18.97
2017-07-12T03:12:34.461Z,18.78
2017-07-12T03:15:01.865Z,18.90
2017-07-12T03:17:29.259Z,18.90
2017-07-12T03:19:56.663Z,18.97
2017-07-12T03:22:24.063Z,18.98
2017-07-12T03:24:51.468Z,19.05
2017-07-12T03:27:18.867Z,19.08
2017-07-12T03:29:46.294Z,19.14
2017-07-12T03:32:13.686Z,19.21
2017-07-12T03:34:41.083Z,19.28
2017-07-12T03:37:08.492Z,19.41
2017-07-12T03:39:47.704Z,19.42
2017-07-12T03:42:15.095Z,19.39
2017-07-12T03:44:42.503Z,19.21
2017-07-12T03:47:09.906Z,19.01
2017-07-12T03:49:37.307Z,18.89
2017-07-12T03:52:04.706Z,18.95
2017-07-12T03:54:32.107Z,19.07
2017-07-12T03:56:59.506Z,19.13
2017-07-12T03:59:26.910Z,19.22
2017-07-12T04:01:54.380Z,19.35
2017-07-12T04:04:21.822Z,19.33
2017-07-12T04:06:49.208Z,19.32
2017-07-12T04:09:16.632Z,19.34
2017-07-12T04:11:44.038Z,19.40
2017-07-12T04:14:11.684Z,19.41
2017-07-12T04:16:39.083Z,19.35
2017-07-12T04:19:06.487Z,19.42
2017-07-12T04:21:33.943Z,19.40
2017-07-12T04:24:01.355Z,19.28
2017-07-12T04:26:28.751Z,19.37
2017-07-12T04:28:56.183Z,19.29
2017-07-12T04:31:23.584Z,19.32
2017-07-12T04:33:51.235Z,19.36
2017-07-12T04:36:18.647Z,19.44
2017-07-12T04:38:46.043Z,19.46
2017-07-12T04:41:13.463Z,19.42
2017-07-12T04:43:40.854Z,19.45
2017-07-12T04:46:08.265Z,19.44
2017-07-12T04:48:35.671Z,19.46
2017-07-12T04:51:03.074Z,19.45
2017-07-12T04:53:30.473Z,19.47
2017-07-12T04:55:57.886Z,19.48
2017-07-12T04:58:25.279Z,19.43
2017-07-12T05:00:52.691Z,19.52
2017-07-12T05:03:20.106Z,19.48
2017-07-12T05:05:47.523Z,19.50
2017-07-12T05:08:14.926Z,19.49
2017-07-12T05:10:42.344Z,19.42
2017-07-12T05:13:09.771Z,19.41
2017-07-12T05:15:37.184Z,19.41
2017-07-12T05:18:04.579Z,19.43
2017-07-12T05:20:31.992Z,19.37
2017-07-12T05:22:59.399Z,19.41
2017-07-12T05:25:27.108Z,19.31
2017-07-12T05:27:54.516Z,19.19
2017-07-12T05:30:21.919Z,19.06
2017-07-12T05:32:49.321Z,19.15
2017-07-12T05:35:16.727Z,19.18
2017-07-12T05:37:44.128Z,19.02
2017-07-12T05:40:11.552Z,19.01
2017-07-12T05:42:38.947Z,18.98
2017-07-12T05:45:06.351Z,18.89
2017-07-12T05:47:33.768Z,18.85
2017-07-12T05:50:01.160Z,19.01
2017-07-12T05:52:28.823Z,18.98
2017-07-12T05:54:56.491Z,19.06
2017-07-12T05:57:23.898Z,19.10
2017-07-12T05:59:51.292Z,19.07
2017-07-12T06:02:18.696Z,18.92
2017-07-12T06:04:46.097Z,18.86
2017-07-12T06:07:13.508Z,18.83
2017-07-12T06:09:40.911Z,18.84
2017-07-12T06:12:08.355Z,18.89
2017-07-12T06:14:35.760Z,18.97
2017-07-12T06:17:03.167Z,19.03
2017-07-12T06:19:30.566Z,19.02
2017-07-12T06:21:57.990Z,19.01
2017-07-12T06:24:25.387Z,18.89
2017-07-12T06:26:52.804Z,18.77
2017-07-12T06:29:20.206Z,18.83
2017-07-12T06:31:47.616Z,18.92
2017-07-12T06:34:15.010Z,19.09
2017-07-12T06:36:42.735Z,19.05
2017-07-12T06:39:10.131Z,19.01
2017-07-12T06:41:37.570Z,19.13
2017-07-12T06:44:04.970Z,19.21
2017-07-12T06:46:32.663Z,19.26
2017-07-12T06:49:00.059Z,19.11
2017-07-12T06:51:27.488Z,19.07
2017-07-12T06:53:55.187Z,18.95
2017-07-12T06:56:22.751Z,19.07
2017-07-12T06:58:50.163Z,19.10
2017-07-12T07:01:17.547Z,18.89
2017-07-12T07:03:44.955Z,18.92
2017-07-12T07:06:12.351Z,18.97
2017-07-12T07:08:39.766Z,19.01
2017-07-12T07:11:07.191Z,18.93
2017-07-12T07:13:34.595Z,18.88
2017-07-12T07:16:01.994Z,18.93
2017-07-12T07:18:29.403Z,18.87
2017-07-12T07:20:56.800Z,18.87
2017-07-12T07:23:24.198Z,18.98
2017-07-12T07:25:51.598Z,18.89
2017-07-12T07:28:19.012Z,18.89
2017-07-12T07:30:46.415Z,19.11
2017-07-12T07:33:13.847Z,19.20
2017-07-12T07:35:41.248Z,19.34
2017-07-12T07:38:08.659Z,19.09
2017-07-12T07:40:36.056Z,19.05
2017-07-12T07:43:03.467Z,18.92
2017-07-12T07:45:31.112Z,18.95
2017-07-12T07:50:25.212Z,19.20
2017-07-12T07:52:52.622Z,19.28
2017-07-12T07:55:20.324Z,19.34
2017-07-12T07:57:47.732Z,19.21
2017-07-12T08:00:15.133Z,19.19
2017-07-12T08:02:42.535Z,19.17
2017-07-12T08:05:09.941Z,19.20
2017-07-12T08:07:37.337Z,19.26
2017-07-12T08:10:04.742Z,19.42
2017-07-12T08:12:32.145Z,19.41
2017-07-12T08:14:59.555Z,19.44
2017-07-12T08:17:26.952Z,19.35
2017-07-12T08:19:54.354Z,19.43
2017-07-12T08:22:21.750Z,19.39
2017-07-12T08:24:49.161Z,19.48
2017-07-12T08:27:16.554Z,19.49
2017-07-12T08:29:43.958Z,19.43
2017-07-12T08:34:38.060Z,19.34
2017-07-12T08:37:05.455Z,19.46
2017-07-12T08:39:33.110Z,19.52
2017-07-12T08:42:00.510Z,19.45
2017-07-12T08:44:27.924Z,19.35
2017-07-12T08:46:55.327Z,19.26
2017-07-12T08:49:22.734Z,19.23
2017-07-12T08:51:50.135Z,19.05
2017-07-12T08:54:17.548Z,19.25
2017-07-12T08:56:44.949Z,19.42
2017-07-12T08:59:12.571Z,19.47
2017-07-12T09:01:39.964Z,19.48
2017-07-12T09:04:07.374Z,19.53
2017-07-12T09:06:34.982Z,19.47
2017-07-12T09:09:02.388Z,19.40
2017-07-12T09:11:29.788Z,19.45
2017-07-12T09:13:57.193Z,19.42
2017-07-12T09:16:24.587Z,19.46
2017-07-12T09:18:52.014Z,19.53
2017-07-12T09:21:19.551Z,19.66
2017-07-12T09:23:46.946Z,19.75
2017-07-12T09:33:36.546Z,19.97
2017-07-12T09:36:03.947Z,20.09
2017-07-12T09:38:31.338Z,20.08
2017-07-12T09:40:58.731Z,20.16
2017-07-12T09:43:26.131Z,20.08
2017-07-12T09:45:53.535Z,19.96
2017-07-12T09:48:20.936Z,19.97
2017-07-12T09:50:48.332Z,19.95
2017-07-12T09:53:16.091Z,20.02
2017-07-12T09:55:43.500Z,19.99
2017-07-12T09:58:10.891Z,19.87
2017-07-12T10:00:38.334Z,19.92
2017-07-12T10:03:05.717Z,19.91
2017-07-12T10:05:33.187Z,19.87
2017-07-12T10:08:00.604Z,19.89
2017-07-12T10:10:28.008Z,19.79
2017-07-12T10:12:55.402Z,19.73
2017-07-12T10:15:22.819Z,19.76
2017-07-12T10:17:50.192Z,19.78
2017-07-12T10:20:17.595Z,19.79
2017-07-12T10:22:44.988Z,19.73
2017-07-12T10:25:12.387Z,19.82
2017-07-12T10:27:39.776Z,19.72
2017-07-12T10:30:07.172Z,19.72
2017-07-12T10:32:34.559Z,19.82
2017-07-12T10:35:01.942Z,19.96
2017-07-12T10:37:29.335Z,20.02
2017-07-12T10:39:56.727Z,20.11
2017-07-12T10:42:24.118Z,20.09
2017-07-12T10:44:51.507Z,20.14
2017-07-12T10:47:18.900Z,20.19
2017-07-12T10:49:46.503Z,20.30
2017-07-12T10:52:13.695Z,20.31
2017-07-12T10:57:14.971Z,20.34
2017-07-12T10:59:42.355Z,20.36
2017-07-12T11:02:09.754Z,20.38
2017-07-12T11:04:37.135Z,20.39
2017-07-12T11:07:04.530Z,20.37
2017-07-12T11:09:31.923Z,20.39
2017-07-12T11:11:59.311Z,20.39
2017-07-12T11:14:26.726Z,20.37
2017-07-12T11:16:54.107Z,20.39
2017-07-12T11:19:21.497Z,20.36
2017-07-12T11:21:48.896Z,20.34
2017-07-12T11:24:16.286Z,20.31
2017-07-12T11:26:43.678Z,20.36
2017-07-12T11:29:11.067Z,20.23
2017-07-12T11:31:38.459Z,20.16
2017-07-12T11:34:05.844Z,20.07
2017-07-12T11:36:33.230Z,19.99
2017-07-12T11:39:00.931Z,20.07
2017-07-12T11:41:28.338Z,19.72
2017-07-12T11:43:55.714Z,19.53
2017-07-12T11:46:23.104Z,19.29
2017-07-12T11:48:50.502Z,19.18
2017-07-12T11:51:17.903Z,19.18
2017-07-12T11:53:45.300Z,19.14
2017-07-12T11:56:12.687Z,18.91
2017-07-12T11:58:40.087Z,18.83
2017-07-12T12:01:07.476Z,18.90
2017-07-12T12:03:34.865Z,18.84
2017-07-12T12:06:02.543Z,18.78
2017-07-12T12:08:29.946Z,18.92
2017-07-12T12:10:57.559Z,19.00
2017-07-12T12:13:24.961Z,18.86
2017-07-12T12:15:52.341Z,18.80
2017-07-12T12:18:19.730Z,18.84
2017-07-12T12:20:47.127Z,18.79
2017-07-12T12:23:14.510Z,18.78
2017-07-12T12:25:41.891Z,18.68
2017-07-12T12:28:09.282Z,18.66
2017-07-12T12:30:36.663Z,18.56
2017-07-12T12:33:04.056Z,18.53
2017-07-12T12:35:31.434Z,18.47
2017-07-12T12:37:58.823Z,18.51
2017-07-12T12:40:26.223Z,18.48
2017-07-12T12:42:53.649Z,18.51
2017-07-12T12:45:21.047Z,18.49
2017-07-12T12:47:48.439Z,18.42
2017-07-12T12:50:15.838Z,18.47
2017-07-12T12:52:43.235Z,18.43
2017-07-12T12:55:10.627Z,18.46
2017-07-12T12:57:38.031Z,18.56
2017-07-12T13:00:05.423Z,18.51
2017-07-12T13:02:32.806Z,18.60
2017-07-12T13:05:05.798Z,18.61
2017-07-12T13:07:33.186Z,18.48
2017-07-12T13:10:00.575Z,18.51
2017-07-12T13:12:27.969Z,18.40
2017-07-12T13:14:55.364Z,18.54
2017-07-12T13:17:22.760Z,18.44
2017-07-12T13:19:50.947Z,18.51
2017-07-12T13:22:18.339Z,18.58
2017-07-12T13:24:45.739Z,18.59
2017-07-12T13:27:13.135Z,18.53
2017-07-12T13:29:40.539Z,18.58
2017-07-12T13:32:07.928Z,18.64
2017-07-12T13:34:35.322Z,18.64
2017-07-12T13:37:02.719Z,18.61
2017-07-12T13:39:30.121Z,18.60
2017-07-12T13:41:57.511Z,18.48
2017-07-12T13:44:25.111Z,18.41
2017-07-12T13:46:52.501Z,18.36
2017-07-12T13:49:19.899Z,18.27
2017-07-12T13:51:47.294Z,18.25
2017-07-12T13:54:14.690Z,18.22
2017-07-12T13:56:42.079Z,18.23
2017-07-12T13:59:09.474Z,18.20
2017-07-12T14:01:36.936Z,18.15
2017-07-12T14:04:04.318Z,18.25
2017-07-12T14:06:31.721Z,18.27
2017-07-12T14:08:59.143Z,18.22
2017-07-12T14:11:26.540Z,18.03
2017-07-12T14:13:53.946Z,17.95
2017-07-12T14:16:21.401Z,17.94
2017-07-12T14:18:48.752Z,18.00
2017-07-12T14:21:16.159Z,18.02
2017-07-12T14:23:43.559Z,18.11
2017-07-12T14:26:10.968Z,18.15
2017-07-12T14:28:38.387Z,18.16
2017-07-12T14:31:05.783Z,18.19
2017-07-12T14:33:33.189Z,18.14
2017-07-12T14:36:00.587Z,18.15
2017-07-12T14:38:28.006Z,18.07
2017-07-12T14:40:55.403Z,17.95
2017-07-12T14:43:22.807Z,18.09
2017-07-12T14:45:50.210Z,18.05
2017-07-12T14:48:17.632Z,18.15
2017-07-12T14:50:45.030Z,18.16
2017-07-12T14:53:12.439Z,18.13
2017-07-12T14:55:39.844Z,18.28
2017-07-12T14:58:07.241Z,18.32
2017-07-12T15:00:34.642Z,18.29
2017-07-12T15:03:02.078Z,18.19
2017-07-12T15:05:29.480Z,18.13
2017-07-12T15:07:56.879Z,18.12
2017-07-12T15:10:24.284Z,18.19
2017-07-12T15:12:51.687Z,18.32
2017-07-12T15:15:19.091Z,18.24
2017-07-12T15:17:46.500Z,18.12
2017-07-12T15:20:13.911Z,17.91
2017-07-12T15:22:41.314Z,17.76
2017-07-12T15:25:08.747Z,17.72
2017-07-12T15:27:36.142Z,17.65
2017-07-12T15:30:03.528Z,17.63
2017-07-12T15:32:30.932Z,17.61
2017-07-12T15:34:58.323Z,17.61
2017-07-12T15:37:25.728Z,17.47
2017-07-12T15:39:53.331Z,17.48
2017-07-12T15:42:20.743Z,17.45
2017-07-12T15:44:48.167Z,17.28
2017-07-12T15:47:15.559Z,17.15
2017-07-12T15:49:42.953Z,17.16
2017-07-12T15:52:10.360Z,17.20
2017-07-12T15:54:37.752Z,17.24
2017-07-12T15:57:05.151Z,17.31
2017-07-12T15:59:32.543Z,17.23
2017-07-12T16:01:59.943Z,17.22
2017-07-12T16:04:27.339Z,17.23
2017-07-12T16:06:54.731Z,17.25
2017-07-12T16:09:22.125Z,17.29
2017-07-12T16:11:49.529Z,17.26
2017-07-12T16:14:16.919Z,17.33
2017-07-12T16:16:44.327Z,17.16
2017-07-12T16:19:11.715Z,17.02
2017-07-12T16:21:39.111Z,16.65
2017-07-12T16:24:06.827Z,16.32
2017-07-12T16:26:34.223Z,16.15
2017-07-12T16:29:01.618Z,15.92
2017-07-12T16:31:29.007Z,15.92
2017-07-12T16:33:56.403Z,15.77
2017-07-12T16:36:23.805Z,15.64
2017-07-12T16:38:51.200Z,15.59
2017-07-12T16:41:18.591Z,15.58
2017-07-12T16:43:45.996Z,15.52
2017-07-12T16:46:13.391Z,15.27
2017-07-12T16:48:40.784Z,15.32
2017-07-12T16:51:08.177Z,15.22
2017-07-12T16:53:35.583Z,15.00
2017-07-12T16:56:02.980Z,15.01
2017-07-12T16:58:30.373Z,14.89
2017-07-12T17:00:57.761Z,14.88
2017-07-12T17:03:25.167Z,14.81
2017-07-12T17:05:52.880Z,14.80
2017-07-12T17:08:20.280Z,14.58
2017-07-12T17:10:47.665Z,14.65
2017-07-12T17:13:15.095Z,14.62
2017-07-12T17:15:42.471Z,14.63
2017-07-12T17:18:09.869Z,14.71
2017-07-12T17:20:37.263Z,14.68
2017-07-12T17:23:04.654Z,14.67
2017-07-12T17:25:32.051Z,14.67
2017-07-12T17:27:59.443Z,14.70
2017-07-12T17:30:26.838Z,14.76
2017-07-12T17:32:54.243Z,14.63
2017-07-12T17:35:21.628Z,14.64
2017-07-12T17:37:49.028Z,14.75
2017-07-12T17:40:17.307Z,14.74
2017-07-12T17:42:44.935Z,14.73
2017-07-12T17:45:12.324Z,14.74
2017-07-12T17:47:39.745Z,14.74
2017-07-12T17:50:07.137Z,14.75
2017-07-12T17:52:34.526Z,14.64
2017-07-12T17:55:01.918Z,14.69
2017-07-12T17:57:29.307Z,14.64
2017-07-12T17:59:56.748Z,14.73
2017-07-12T18:02:24.191Z,14.77
2017-07-12T18:04:51.539Z,14.82
2017-07-12T18:07:18.933Z,14.87
2017-07-12T18:09:46.329Z,14.91
2017-07-12T18:12:13.738Z,14.99
2017-07-12T18:14:41.127Z,15.07
2017-07-12T18:17:08.536Z,15.14
2017-07-12T18:19:35.933Z,15.27
2017-07-12T18:22:03.334Z,15.36
2017-07-12T18:24:30.735Z,15.50
2017-07-12T18:26:58.124Z,15.51
2017-07-12T18:29:25.531Z,15.51
2017-07-12T18:31:52.923Z,15.54
2017-07-12T18:34:20.326Z,15.57
2017-07-12T18:36:47.712Z,15.51
2017-07-12T18:39:15.119Z,15.46
2017-07-12T18:41:42.513Z,15.33
2017-07-12T18:44:09.915Z,15.27
2017-07-12T18:46:37.552Z,15.18
2017-07-12T18:49:04.946Z,15.10
2017-07-12T18:51:32.330Z,15.17
2017-07-12T18:53:59.730Z,15.17
2017-07-12T18:56:27.127Z,15.17
2017-07-12T18:58:54.572Z,15.22
2017-07-12T19:01:21.951Z,15.23
2017-07-12T19:03:49.351Z,15.15
2017-07-12T19:06:16.742Z,15.14
2017-07-12T19:11:17.919Z,15.19
2017-07-12T19:13:45.312Z,15.17
2017-07-12T19:16:12.695Z,15.21
2017-07-12T19:18:40.499Z,15.25
2017-07-12T19:21:07.895Z,15.22
2017-07-12T19:23:35.378Z,15.15
2017-07-12T19:26:02.696Z,15.05
2017-07-12T19:28:30.091Z,14.90
2017-07-12T19:30:57.490Z,14.88
2017-07-12T19:33:24.891Z,14.90
2017-07-12T19:35:52.293Z,14.85
2017-07-12T19:38:20.011Z,14.84
2017-07-12T19:40:47.407Z,14.88
2017-07-12T19:43:14.903Z,14.87
2017-07-12T19:45:42.299Z,14.88
2017-07-12T19:48:09.695Z,14.84
2017-07-12T19:50:37.110Z,14.78
2017-07-12T19:53:04.491Z,14.68
2017-07-12T19:55:31.903Z,14.60
2017-07-12T19:57:59.295Z,14.59
2017-07-12T20:00:26.697Z,14.60
2017-07-12T20:02:54.087Z,14.58
2017-07-12T20:05:21.487Z,14.63
2017-07-12T20:07:48.879Z,14.52
2017-07-12T20:10:16.284Z,14.49
2017-07-12T20:12:43.687Z,14.51
2017-07-12T20:15:11.088Z,14.43
2017-07-12T20:17:38.495Z,14.46
2017-07-12T20:20:05.891Z,14.39
2017-07-12T20:22:33.515Z,14.39
2017-07-12T20:25:00.907Z,14.40
2017-07-12T20:27:28.303Z,14.38
2017-07-12T20:29:55.696Z,14.31
2017-07-12T20:32:23.343Z,14.29
2017-07-12T20:34:50.755Z,14.28
2017-07-12T20:37:18.157Z,14.22
2017-07-12T20:39:45.543Z,14.22
2017-07-12T20:42:12.948Z,14.21
2017-07-12T20:44:40.344Z,14.26
2017-07-12T20:47:07.740Z,14.26
2017-07-12T20:49:35.127Z,14.24
2017-07-12T20:52:02.522Z,14.22
2017-07-12T20:54:29.915Z,14.23
2017-07-12T20:56:57.329Z,14.19
2017-07-12T20:59:24.715Z,14.20
2017-07-12T21:01:52.112Z,14.25
2017-07-12T21:04:19.499Z,14.16
2017-07-12T21:06:46.903Z,14.18
2017-07-12T21:09:14.296Z,14.19
2017-07-12T21:11:41.699Z,14.19
2017-07-12T21:14:09.391Z,14.23
2017-07-12T21:16:36.812Z,14.24
2017-07-12T21:19:04.200Z,14.22
2017-07-12T21:21:31.587Z,14.21
2017-07-12T21:23:58.995Z,14.18
2017-07-12T21:26:26.390Z,14.11
2017-07-12T21:28:53.784Z,14.19
2017-07-12T21:31:21.195Z,14.17
2017-07-12T21:33:48.588Z,14.18
2017-07-12T21:36:15.987Z,14.26
2017-07-12T21:38:43.383Z,14.18
2017-07-12T21:41:10.786Z,14.14
2017-07-12T21:43:38.182Z,14.10
2017-07-12T21:46:05.571Z,14.04
2017-07-12T21:48:32.975Z,14.15
2017-07-12T21:51:00.366Z,14.14
2017-07-12T21:53:45.247Z,14.17
2017-07-12T21:56:30.222Z,14.21
2017-07-12T21:59:15.187Z,14.22
2017-07-12T22:02:00.168Z,14.27
2017-07-12T22:04:45.147Z,14.38
2017-07-12T22:07:30.110Z,14.47
2017-07-12T22:10:14.959Z,14.51
2017-07-12T22:12:59.907Z,14.57
2017-07-12T22:15:44.801Z,14.69
2017-07-12T22:18:29.869Z,14.60
2017-07-12T22:21:14.836Z,14.60
2017-07-12T22:23:59.925Z,14.71
2017-07-12T22:26:44.807Z,14.64
2017-07-12T22:29:29.651Z,14.61
2017-07-12T22:32:14.472Z,14.63
2017-07-12T22:34:59.432Z,14.64
2017-07-12T22:37:32.467Z,14.67
2017-07-12T22:40:05.247Z,14.66
2017-07-12T22:42:38.150Z,14.62
2017-07-12T22:45:05.548Z,14.59
2017-07-12T22:47:32.949Z,14.59
2017-07-12T22:50:00.338Z,14.76
2017-07-12T22:52:27.733Z,14.77
2017-07-12T22:54:55.131Z,14.92
2017-07-12T22:57:22.528Z,14.84
2017-07-12T22:59:49.927Z,14.89
2017-07-12T23:02:17.355Z,14.95
2017-07-12T23:04:44.764Z,14.90
2017-07-12T23:07:12.163Z,14.89
2017-07-12T23:09:39.588Z,14.85
2017-07-12T23:12:06.972Z,14.83
2017-07-12T23:14:34.367Z,14.77
2017-07-12T23:17:01.771Z,14.73
2017-07-12T23:19:29.171Z,14.66
2017-07-12T23:21:56.580Z,14.70
2017-07-12T23:24:23.970Z,14.57
2017-07-12T23:26:51.387Z,14.39
2017-07-12T23:29:18.825Z,14.32
2017-07-12T23:31:46.223Z,14.24
2017-07-12T23:34:13.631Z,14.21
2017-07-12T23:36:41.022Z,14.09
2017-07-12T23:39:08.432Z,14.11
2017-07-12T23:41:35.835Z,14.13
2017-07-12T23:44:03.255Z,14.23
2017-07-12T23:46:30.647Z,14.24
2017-07-12T23:48:58.043Z,14.29
2017-07-12T23:51:25.449Z,14.37
2017-07-12T23:53:52.839Z,14.41
2017-07-12T23:56:20.237Z,14.51
2017-07-12T23:58:47.628Z,14.65
